Impacts METAR Board INFO
IDs:

KSLC - Salt Lake City Intl, UT, US

Updated at: 1610 UTC 19 Nov 2017
Potential Impact None Slight Moderate High
Time19/04Z 19/05Z 19/06Z 19/07Z 19/08Z 19/09Z 19/10Z 19/11Z 19/12Z 19/13Z 19/14Z 19/15Z 19/16Z
VIS10 10 10 10 10 10 10 10 10 10 10 10 10
CIG-- -- -- -- 200 200 200 200 200 200 200 220 220
CoverFEWFEWSCTSCTBKNBKNBKNBKNBKNBKNBKNBKNBKN
FltCatVFRVFRVFRVFRVFRVFRVFRVFRVFRVFRVFRVFRVFR
WX--------------------------
WDir18021017023001201501701300110120170
WSpd3 3 6 5 0 4 6 4 3 0 5 3 4
WGst-- -- -- -- -- -- -- -- -- -- -- -- --
Raw hourly METARs
KSLC 190354Z 18003KT 10SM FEW200 01/M03 A3036 RMK AO2 SLP291 T00111033 VISNO NW RNWY $
KSLC 190454Z 21003KT 10SM FEW200 01/M03 A3035 RMK AO2 SLP287 T00061033 $
KSLC 190554Z 17006KT 10SM SCT200 00/M04 A3034 RMK AO2 SLP285 T00001044 10044 20000 56007 $
KSLC 190654Z 23005KT 10SM SCT200 M01/M04 A3034 RMK AO2 SLP272 T10061039 400721011 $
KSLC 190754Z 00000KT 10SM BKN200 00/M04 A3034 RMK AO2 SLP279 T00001044 $
KSLC 190854Z 12004KT 10SM BKN200 00/M04 A3033 RMK AO2 SLP276 T00001044 58004 VISNO NW RNWY $
KSLC 190954Z 15006KT 10SM BKN200 M01/M04 A3032 RMK AO2 SLP273 T10061044 VISNO NW RNWY $
KSLC 191054Z 17004KT 10SM BKN200 M01/M04 A3030 RMK AO2 SLP265 T10111044 VISNO NW RNWY $
KSLC 191154Z 13003KT 10SM BKN200 M01/M04 A3029 RMK AO2 SLP264 T10111044 10011 21011 58014 VISNO NW RNWY $
KSLC 191254Z 00000KT 10SM BKN200 M01/M04 A3028 RMK AO2 SLP263 T10061044 VISNO NW RNWY $
KSLC 191354Z 11005KT 10SM SCT150 BKN200 M01/M05 A3027 RMK AO2 SLP262 T10111050 VISNO NW RNWY $
KSLC 191454Z 12003KT 10SM SCT180 BKN220 M01/M05 A3028 RMK AO2 SLP265 T10061050 55002 VISNO NW RNWY $
KSLC 191554Z 17004KT 10SM FEW180 BKN220 01/M04 A3029 RMK AO2 SLP267 T00111039 VISNO NW RNWY $